createdAt,value
2023-02-28T00:01:06.136Z,73.30
2023-02-28T00:03:36.277Z,73.29
2023-02-28T00:06:05.421Z,73.38
2023-02-28T00:08:32.409Z,73.43
2023-02-28T00:11:06.687Z,73.26
2023-02-28T00:13:35.472Z,73.51
2023-02-28T00:16:07.691Z,73.32
2023-02-28T00:18:34.505Z,73.69
2023-02-28T00:21:01.179Z,73.41
2023-02-28T00:23:28.799Z,73.48
2023-02-28T00:25:55.721Z,73.60
2023-02-28T00:28:22.703Z,73.61
2023-02-28T00:30:49.488Z,73.71
2023-02-28T00:33:16.311Z,73.87
2023-02-28T00:35:43.166Z,73.76
2023-02-28T00:38:10.245Z,73.84
2023-02-28T00:40:36.939Z,73.90
2023-02-28T00:43:05.085Z,74.21
2023-02-28T00:45:31.818Z,74.00
2023-02-28T00:47:58.513Z,74.09
2023-02-28T00:50:25.315Z,74.23
2023-02-28T00:52:52.025Z,74.36
2023-02-28T00:55:19.629Z,74.56
2023-02-28T00:57:46.372Z,74.56
2023-02-28T01:00:13.558Z,74.34
2023-02-28T01:02:40.299Z,74.47
2023-02-28T01:05:08.849Z,74.51
2023-02-28T01:07:35.653Z,74.53
2023-02-28T01:10:02.415Z,74.57
2023-02-28T01:12:30.928Z,74.49
2023-02-28T01:14:57.958Z,74.36
2023-02-28T01:17:24.741Z,74.63
2023-02-28T01:19:54.796Z,74.56
2023-02-28T01:22:21.935Z,74.60
2023-02-28T01:24:48.979Z,74.70
2023-02-28T01:27:15.783Z,74.67
2023-02-28T01:29:42.489Z,74.68
2023-02-28T01:32:09.958Z,74.44
2023-02-28T01:34:36.720Z,74.51
2023-02-28T01:37:04.840Z,74.72
2023-02-28T01:39:31.676Z,74.79
2023-02-28T01:41:58.398Z,74.52
2023-02-28T01:45:00.954Z,74.83
2023-02-28T01:47:31.999Z,74.80
2023-02-28T01:50:00.043Z,74.84
2023-02-28T01:52:27.648Z,74.91
2023-02-28T01:54:56.777Z,74.90
2023-02-28T01:57:27.761Z,74.83
2023-02-28T02:00:00.275Z,74.90
2023-02-28T02:02:28.712Z,75.04
2023-02-28T02:05:02.796Z,74.92
2023-02-28T02:07:34.088Z,75.07
2023-02-28T02:10:03.899Z,75.10
2023-02-28T02:13:02.677Z,75.02
2023-02-28T02:15:35.775Z,75.17
2023-02-28T02:18:11.059Z,75.06
2023-02-28T02:20:48.183Z,75.16
2023-02-28T02:23:29.296Z,75.13
2023-02-28T02:26:01.071Z,75.18
2023-02-28T02:28:34.213Z,75.32
2023-02-28T02:31:21.277Z,75.22
2023-02-28T02:34:14.907Z,75.19
2023-02-28T02:36:53.318Z,75.26
2023-02-28T02:39:23.102Z,75.35
2023-02-28T02:41:54.777Z,75.51
2023-02-28T02:44:36.804Z,75.42
2023-02-28T02:47:12.109Z,75.70
2023-02-28T02:49:41.154Z,75.48
2023-02-28T02:52:10.492Z,75.54
2023-02-28T02:54:40.545Z,75.62
2023-02-28T02:57:10.851Z,75.47
2023-02-28T02:59:40.630Z,75.69
2023-02-28T03:02:09.964Z,75.57
2023-02-28T03:04:43.977Z,75.57
2023-02-28T03:07:10.865Z,75.73
2023-02-28T03:09:37.716Z,75.81
2023-02-28T03:12:11.291Z,75.81
2023-02-28T03:14:52.978Z,75.56
2023-02-28T03:17:37.020Z,75.54
2023-02-28T03:20:28.035Z,75.50
2023-02-28T03:23:08.786Z,75.62
2023-02-28T03:25:58.217Z,75.66
2023-02-28T03:28:33.592Z,75.63
2023-02-28T03:31:39.696Z,75.89
2023-02-28T03:34:13.264Z,75.80
2023-02-28T03:36:45.658Z,75.67
2023-02-28T03:39:17.359Z,75.89
2023-02-28T03:41:48.936Z,75.81
2023-02-28T03:44:38.591Z,75.67
2023-02-28T03:47:09.294Z,75.85
2023-02-28T03:50:02.285Z,76.00
2023-02-28T03:52:34.152Z,75.71
2023-02-28T03:55:07.636Z,75.79
2023-02-28T03:58:11.982Z,75.89
2023-02-28T04:00:42.198Z,75.77
2023-02-28T04:03:08.988Z,75.91
2023-02-28T04:05:47.598Z,76.06
2023-02-28T04:08:14.286Z,75.88
2023-02-28T04:10:41.355Z,76.01
2023-02-28T04:13:08.103Z,75.90
2023-02-28T04:15:34.823Z,76.14
2023-02-28T04:18:01.642Z,75.98
2023-02-28T04:20:28.700Z,75.94
2023-02-28T04:22:55.396Z,75.82
2023-02-28T04:25:22.064Z,76.05
2023-02-28T04:27:49.505Z,75.81
2023-02-28T04:30:16.514Z,75.89
2023-02-28T04:32:43.249Z,75.85
2023-02-28T04:35:12.219Z,75.68
2023-02-28T04:37:39.098Z,75.94
2023-02-28T04:40:06.440Z,75.97
2023-02-28T04:42:36.642Z,75.79
2023-02-28T04:45:04.382Z,75.82
2023-02-28T04:47:31.292Z,75.97
2023-02-28T04:49:58.048Z,75.84
2023-02-28T04:52:25.096Z,75.70
2023-02-28T04:54:51.821Z,75.66
2023-02-28T04:57:18.944Z,75.66
2023-02-28T04:59:46.286Z,75.75
2023-02-28T05:02:13.066Z,75.66
2023-02-28T05:04:39.858Z,75.67
2023-02-28T05:07:06.636Z,75.72
2023-02-28T05:09:34.343Z,75.75
2023-02-28T05:12:01.056Z,76.04
2023-02-28T05:14:27.757Z,76.00
2023-02-28T05:16:54.508Z,75.92
2023-02-28T05:19:22.398Z,75.91
2023-02-28T05:21:53.073Z,76.01
2023-02-28T05:24:23.926Z,76.02
2023-02-28T05:26:52.223Z,76.03
2023-02-28T05:29:19.135Z,75.96
2023-02-28T05:31:46.385Z,76.02
2023-02-28T05:34:13.728Z,76.36
2023-02-28T05:36:40.748Z,76.05
2023-02-28T05:39:08.690Z,76.29
2023-02-28T05:41:35.590Z,76.07
2023-02-28T05:44:02.479Z,76.13
2023-02-28T05:46:29.243Z,76.50
2023-02-28T05:48:57.735Z,76.46
2023-02-28T05:51:24.472Z,76.41
2023-02-28T05:53:51.207Z,76.67
2023-02-28T05:56:18.047Z,76.37
2023-02-28T05:58:45.169Z,76.53
2023-02-28T06:01:35.637Z,76.63
2023-02-28T06:04:30.377Z,76.55
2023-02-28T06:06:58.947Z,76.73
2023-02-28T06:09:27.911Z,76.62
2023-02-28T06:11:55.264Z,76.66
2023-02-28T06:14:22.294Z,76.78
2023-02-28T06:16:51.886Z,76.52
2023-02-28T06:19:18.830Z,76.75
2023-02-28T06:21:45.584Z,76.72
2023-02-28T06:24:12.477Z,76.54
2023-02-28T06:26:39.220Z,76.67
2023-02-28T06:29:06.161Z,76.77
2023-02-28T06:31:33.581Z,76.47
2023-02-28T06:34:00.568Z,76.58
2023-02-28T06:36:27.523Z,76.56
2023-02-28T06:38:56.624Z,76.73
2023-02-28T06:41:28.106Z,76.56
2023-02-28T06:43:55.409Z,76.66
2023-02-28T06:46:22.824Z,76.63
2023-02-28T06:48:49.871Z,76.95
2023-02-28T06:51:21.402Z,76.75
2023-02-28T06:53:48.234Z,76.78
2023-02-28T06:56:16.847Z,76.82
2023-02-28T06:58:47.168Z,76.88
2023-02-28T07:01:14.542Z,76.84
2023-02-28T07:03:41.507Z,76.70
2023-02-28T07:06:08.231Z,76.93
2023-02-28T07:08:35.578Z,76.73
2023-02-28T07:11:02.945Z,76.99
2023-02-28T07:13:30.211Z,76.73
2023-02-28T07:16:07.304Z,76.71
2023-02-28T07:18:34.894Z,76.84
2023-02-28T07:21:06.349Z,76.72
2023-02-28T07:23:33.259Z,77.00
2023-02-28T07:26:00.374Z,76.86
2023-02-28T07:28:27.730Z,77.02
2023-02-28T07:30:56.796Z,76.75
2023-02-28T07:33:25.006Z,76.83
2023-02-28T07:35:51.857Z,76.70
2023-02-28T07:38:19.176Z,76.78
2023-02-28T07:40:46.921Z,76.75
2023-02-28T07:43:13.708Z,76.95
2023-02-28T07:45:40.475Z,76.71
2023-02-28T07:48:07.307Z,76.76
2023-02-28T07:50:35.692Z,76.87
2023-02-28T07:53:02.477Z,76.83
2023-02-28T07:55:29.444Z,76.60
2023-02-28T07:57:58.139Z,76.55
2023-02-28T08:00:27.512Z,76.24
2023-02-28T08:02:54.754Z,76.11
2023-02-28T08:05:22.310Z,76.02
2023-02-28T08:07:50.537Z,75.95
2023-02-28T08:10:17.784Z,75.88
2023-02-28T08:12:44.617Z,75.67
2023-02-28T08:15:11.726Z,75.64
2023-02-28T08:17:39.163Z,75.26
2023-02-28T08:20:06.526Z,75.31
2023-02-28T08:22:37.936Z,75.25
2023-02-28T08:25:05.217Z,74.79
2023-02-28T08:27:31.962Z,74.40
2023-02-28T08:29:58.896Z,74.16
2023-02-28T08:32:30.343Z,73.94
2023-02-28T08:34:57.801Z,73.55
2023-02-28T08:37:24.789Z,73.33
2023-02-28T08:39:53.990Z,72.92
2023-02-28T08:42:22.496Z,71.76
2023-02-28T08:44:49.299Z,70.94
2023-02-28T08:47:18.666Z,70.15
2023-02-28T08:49:45.546Z,69.49
2023-02-28T08:52:12.300Z,68.71
2023-02-28T08:54:39.079Z,68.61
2023-02-28T08:57:05.791Z,68.25
2023-02-28T08:59:35.578Z,67.34
2023-02-28T09:02:03.760Z,66.74
2023-02-28T09:04:32.147Z,66.04
2023-02-28T09:06:58.981Z,65.77
2023-02-28T09:09:25.729Z,65.11
2023-02-28T09:11:52.548Z,64.83
2023-02-28T09:14:19.336Z,64.73
2023-02-28T09:16:46.059Z,64.07
2023-02-28T09:19:13.828Z,63.94
2023-02-28T09:21:40.775Z,63.18
2023-02-28T09:24:08.835Z,62.50
2023-02-28T09:27:04.303Z,61.89
2023-02-28T09:29:33.858Z,61.70
2023-02-28T09:32:09.067Z,61.08
2023-02-28T09:34:38.125Z,61.31
2023-02-28T09:37:05.051Z,61.15
2023-02-28T09:39:32.801Z,61.08
2023-02-28T09:41:59.892Z,60.83
2023-02-28T09:44:33.932Z,60.83
2023-02-28T09:47:05.190Z,60.58
2023-02-28T09:49:52.296Z,60.43
2023-02-28T09:52:48.236Z,60.39
2023-02-28T09:55:24.080Z,60.19
2023-02-28T09:57:53.775Z,60.06
2023-02-28T10:00:20.910Z,59.60
2023-02-28T10:03:18.311Z,59.41
2023-02-28T10:05:55.152Z,59.31
2023-02-28T10:08:29.869Z,58.95
2023-02-28T10:10:59.004Z,58.28
2023-02-28T10:13:38.271Z,58.16
2023-02-28T10:16:12.706Z,57.89
2023-02-28T10:19:01.999Z,58.08
2023-02-28T10:21:35.324Z,57.61
2023-02-28T10:24:06.786Z,57.38
2023-02-28T10:26:34.438Z,57.25
2023-02-28T10:29:04.174Z,57.06
2023-02-28T10:31:31.089Z,57.00
2023-02-28T10:34:00.714Z,56.72
2023-02-28T10:36:28.027Z,56.58
2023-02-28T10:38:57.731Z,56.29
2023-02-28T10:41:30.620Z,56.12
2023-02-28T10:44:23.609Z,55.93
2023-02-28T10:46:52.050Z,55.85
2023-02-28T10:49:22.604Z,55.66
2023-02-28T10:51:53.668Z,55.20
2023-02-28T10:54:24.659Z,55.22
2023-02-28T10:57:20.582Z,55.01
2023-02-28T10:59:47.531Z,54.70
2023-02-28T11:02:38.523Z,54.24
2023-02-28T11:05:27.395Z,54.27
2023-02-28T11:08:20.984Z,54.08
2023-02-28T11:10:49.908Z,53.98
2023-02-28T11:13:19.379Z,53.41
2023-02-28T11:15:52.613Z,53.30
2023-02-28T11:18:26.670Z,53.19
2023-02-28T11:20:55.598Z,52.87
2023-02-28T11:23:23.062Z,52.96
2023-02-28T11:25:58.210Z,52.39
2023-02-28T11:28:32.362Z,52.25
2023-02-28T11:31:08.943Z,52.04
2023-02-28T11:33:49.848Z,52.08
2023-02-28T11:36:20.953Z,52.16
2023-02-28T11:38:48.892Z,51.83
2023-02-28T11:41:24.820Z,51.93
2023-02-28T11:44:11.198Z,51.75
2023-02-28T11:46:46.439Z,51.50
2023-02-28T11:49:40.834Z,51.21
2023-02-28T11:52:21.044Z,51.07
2023-02-28T11:55:03.899Z,51.00
2023-02-28T11:57:40.714Z,50.91
2023-02-28T12:00:09.799Z,50.69
2023-02-28T12:03:05.334Z,50.32
2023-02-28T12:05:36.047Z,50.47
2023-02-28T12:08:21.136Z,50.20
2023-02-28T12:11:12.734Z,49.83
2023-02-28T12:13:56.872Z,49.46
2023-02-28T12:16:32.664Z,48.91
2023-02-28T12:19:11.936Z,49.08
2023-02-28T12:22:04.908Z,49.31
2023-02-28T12:24:50.247Z,49.12
2023-02-28T12:27:20.287Z,48.65
2023-02-28T12:29:50.762Z,48.63
2023-02-28T12:32:22.996Z,48.37
2023-02-28T12:35:04.584Z,48.50
2023-02-28T12:37:42.295Z,48.13
2023-02-28T12:40:14.847Z,48.00
2023-02-28T12:42:46.977Z,47.92
2023-02-28T12:45:22.543Z,47.60
2023-02-28T12:47:54.008Z,47.31
2023-02-28T12:50:21.235Z,47.24
2023-02-28T12:53:27.853Z,47.07
2023-02-28T12:56:19.575Z,46.93
2023-02-28T12:58:49.232Z,46.93
2023-02-28T13:01:40.722Z,46.67
2023-02-28T13:04:41.619Z,46.36
2023-02-28T13:07:37.639Z,46.39
2023-02-28T13:10:07.478Z,46.52
2023-02-28T13:12:35.182Z,46.46
2023-02-28T13:15:25.302Z,46.28
2023-02-28T13:17:54.455Z,45.73
2023-02-28T13:20:48.362Z,45.64
2023-02-28T13:23:52.533Z,45.19
2023-02-28T13:26:19.327Z,45.05
2023-02-28T13:28:52.419Z,44.92
2023-02-28T13:31:19.719Z,45.33
2023-02-28T13:33:55.754Z,45.00
2023-02-28T13:36:24.015Z,44.54
2023-02-28T13:38:56.640Z,44.89
2023-02-28T13:41:47.172Z,44.56
2023-02-28T13:44:24.354Z,44.12
2023-02-28T13:46:51.755Z,44.42
2023-02-28T13:49:33.143Z,44.48
2023-02-28T13:52:17.941Z,44.49
2023-02-28T13:55:22.346Z,44.12
2023-02-28T13:58:21.183Z,43.58
2023-02-28T14:01:12.036Z,44.05
2023-02-28T14:03:53.405Z,43.89
2023-02-28T14:06:26.759Z,44.17
2023-02-28T14:09:02.045Z,43.74
2023-02-28T14:11:34.751Z,43.38
2023-02-28T14:14:02.402Z,43.52
2023-02-28T14:16:40.433Z,44.12
2023-02-28T14:19:14.426Z,43.96
2023-02-28T14:21:52.299Z,43.88
2023-02-28T14:24:43.978Z,43.89
2023-02-28T14:27:24.192Z,43.81
2023-02-28T14:29:50.971Z,43.42
2023-02-28T14:32:42.537Z,43.53
2023-02-28T14:35:27.529Z,43.36
2023-02-28T14:37:57.374Z,43.09
2023-02-28T14:40:36.979Z,42.69
2023-02-28T14:43:17.823Z,42.48
2023-02-28T14:45:44.683Z,42.65
2023-02-28T14:48:11.670Z,42.65
2023-02-28T14:50:38.897Z,42.99
2023-02-28T14:53:10.481Z,42.66
2023-02-28T14:55:37.854Z,42.56
2023-02-28T14:58:07.793Z,42.46
2023-02-28T15:00:41.086Z,42.29
2023-02-28T15:03:26.042Z,42.01
2023-02-28T15:06:04.691Z,41.95
2023-02-28T15:08:38.537Z,41.67
2023-02-28T15:11:20.240Z,41.31
2023-02-28T15:13:49.610Z,40.96
2023-02-28T15:16:30.153Z,40.78
2023-02-28T15:18:59.385Z,40.54
2023-02-28T15:21:30.148Z,40.59
2023-02-28T15:23:59.383Z,40.45
2023-02-28T15:26:29.214Z,40.66
2023-02-28T15:29:01.259Z,40.83
2023-02-28T15:31:39.058Z,40.53
2023-02-28T15:34:21.052Z,40.93
2023-02-28T15:36:49.739Z,41.00
2023-02-28T15:39:20.344Z,40.98
2023-02-28T15:41:47.118Z,40.19
2023-02-28T15:44:31.071Z,40.28
2023-02-28T15:47:05.248Z,40.79
2023-02-28T15:49:45.006Z,38.84
2023-02-28T15:52:21.398Z,38.00
2023-02-28T15:54:48.801Z,36.32
2023-02-28T15:57:22.618Z,36.46
2023-02-28T15:59:55.742Z,37.67
2023-02-28T16:02:36.785Z,38.55
2023-02-28T16:05:09.882Z,39.26
2023-02-28T16:07:42.220Z,40.40
2023-02-28T16:10:11.110Z,40.85
2023-02-28T16:12:39.450Z,41.78
2023-02-28T16:15:18.942Z,41.81
2023-02-28T16:17:47.302Z,42.12
2023-02-28T16:20:16.380Z,42.75
2023-02-28T16:22:44.102Z,43.04
2023-02-28T16:25:19.188Z,43.58
2023-02-28T16:27:50.378Z,43.63
2023-02-28T16:30:21.846Z,43.74
2023-02-28T16:32:48.871Z,44.26
2023-02-28T16:35:16.357Z,44.59
2023-02-28T16:37:45.779Z,44.61
2023-02-28T16:40:24.189Z,45.13
2023-02-28T16:42:52.729Z,45.66
2023-02-28T16:45:22.374Z,45.67
2023-02-28T16:47:49.484Z,45.91
2023-02-28T16:50:19.110Z,46.02
2023-02-28T16:52:46.169Z,46.24
2023-02-28T16:55:16.751Z,46.41
2023-02-28T16:57:44.492Z,46.53
2023-02-28T17:00:16.234Z,46.73
2023-02-28T17:02:43.388Z,46.98
2023-02-28T17:05:13.084Z,47.41
2023-02-28T17:07:40.891Z,47.65
2023-02-28T17:10:20.916Z,48.03
2023-02-28T17:12:48.312Z,48.90
2023-02-28T17:15:17.248Z,49.10
2023-02-28T17:17:45.068Z,49.20
2023-02-28T17:20:19.952Z,49.40
2023-02-28T17:22:47.113Z,49.50
2023-02-28T17:25:13.910Z,49.30
2023-02-28T17:27:40.825Z,49.61
2023-02-28T17:30:16.132Z,49.83
2023-02-28T17:32:43.215Z,50.03
2023-02-28T17:35:10.258Z,51.33
2023-02-28T17:37:37.208Z,52.18
2023-02-28T17:40:04.694Z,52.92
2023-02-28T17:42:31.471Z,53.88
2023-02-28T17:44:58.284Z,54.17
2023-02-28T17:47:25.030Z,54.93
2023-02-28T17:49:51.733Z,55.30
2023-02-28T17:52:23.243Z,55.72
2023-02-28T17:54:49.967Z,56.05
2023-02-28T17:57:17.457Z,55.83
2023-02-28T17:59:44.694Z,56.00
2023-02-28T18:02:13.697Z,56.63
2023-02-28T18:04:41.420Z,56.60
2023-02-28T18:07:10.908Z,57.43
2023-02-28T18:09:37.719Z,57.59
2023-02-28T18:12:04.788Z,57.94
2023-02-28T18:14:31.611Z,57.33
2023-02-28T18:16:58.421Z,56.78
2023-02-28T18:19:25.368Z,56.11
2023-02-28T18:21:53.647Z,55.66
2023-02-28T18:24:22.004Z,55.74
2023-02-28T18:26:48.916Z,55.68
2023-02-28T18:29:24.721Z,56.22
2023-02-28T18:31:52.692Z,56.22
2023-02-28T18:34:20.735Z,56.33
2023-02-28T18:36:48.884Z,56.15
2023-02-28T18:39:19.218Z,56.25
2023-02-28T18:41:46.087Z,56.39
2023-02-28T18:44:19.863Z,56.41
2023-02-28T18:46:49.356Z,56.49
2023-02-28T18:49:16.709Z,56.25
2023-02-28T18:51:45.571Z,56.36
2023-02-28T18:54:13.837Z,56.63
2023-02-28T18:57:15.903Z,56.37
2023-02-28T19:08:33.338Z,57.50
2023-02-28T19:20:47.436Z,58.80
2023-02-28T19:23:18.277Z,58.65
2023-02-28T19:26:54.952Z,59.23
2023-02-28T19:29:55.868Z,59.48
2023-02-28T19:40:09.056Z,59.82
2023-02-28T19:42:36.425Z,59.58
2023-02-28T19:45:07.062Z,59.46
2023-02-28T19:47:43.001Z,59.42
2023-02-28T19:50:10.810Z,59.47
2023-02-28T19:52:38.758Z,59.45
2023-02-28T19:55:08.547Z,59.63
2023-02-28T19:57:35.895Z,59.58
2023-02-28T20:00:02.653Z,59.57
2023-02-28T20:02:39.275Z,59.56
2023-02-28T20:05:06.518Z,59.84
2023-02-28T20:07:33.401Z,59.89
2023-02-28T20:10:00.152Z,59.85
2023-02-28T20:12:27.236Z,60.27
2023-02-28T20:14:57.378Z,60.10
2023-02-28T20:17:24.402Z,60.56
2023-02-28T20:19:51.221Z,60.44
2023-02-28T20:22:17.957Z,60.27
2023-02-28T20:24:44.620Z,60.70
2023-02-28T20:27:11.385Z,60.97
2023-02-28T20:29:38.344Z,60.95
2023-02-28T20:32:05.400Z,61.27
2023-02-28T20:34:32.182Z,61.34
2023-02-28T20:36:59.990Z,61.62
2023-02-28T20:39:26.842Z,61.75
2023-02-28T20:41:53.558Z,61.40
2023-02-28T20:44:20.363Z,61.70
2023-02-28T20:46:47.228Z,61.87
2023-02-28T20:49:15.229Z,61.78
2023-02-28T20:51:42.406Z,61.76
2023-02-28T20:54:11.409Z,61.96
2023-02-28T20:56:38.514Z,62.11
2023-02-28T20:59:05.714Z,62.11
2023-02-28T21:01:32.846Z,62.44
2023-02-28T21:04:02.210Z,62.50
2023-02-28T21:06:31.840Z,62.59
2023-02-28T21:08:59.043Z,62.60
2023-02-28T21:11:28.984Z,62.55
2023-02-28T21:13:56.533Z,62.63
2023-02-28T21:16:25.583Z,62.71
2023-02-28T21:18:55.975Z,62.88
2023-02-28T21:21:24.482Z,63.11
2023-02-28T21:23:52.078Z,62.79
2023-02-28T21:26:21.197Z,63.06
2023-02-28T21:28:55.936Z,63.13
2023-02-28T21:31:24.799Z,62.95
2023-02-28T21:33:55.927Z,63.24
2023-02-28T21:36:35.319Z,63.33
2023-02-28T21:39:14.018Z,63.37
2023-02-28T21:41:41.718Z,63.29
2023-02-28T21:44:09.528Z,63.32
2023-02-28T21:46:36.566Z,63.21
2023-02-28T21:49:03.404Z,63.46
2023-02-28T21:51:31.408Z,63.51
2023-02-28T21:54:02.270Z,63.53
2023-02-28T21:56:30.333Z,63.82
2023-02-28T21:59:03.814Z,63.79
2023-02-28T22:01:39.083Z,63.70
2023-02-28T22:04:08.479Z,63.97
2023-02-28T22:06:37.430Z,63.97
2023-02-28T22:09:06.607Z,64.10
2023-02-28T22:11:34.030Z,64.38
2023-02-28T22:14:01.029Z,64.42
2023-02-28T22:16:33.128Z,64.49
2023-02-28T22:19:07.540Z,64.57
2023-02-28T22:21:35.969Z,64.47
2023-02-28T22:24:03.575Z,64.88
2023-02-28T22:26:31.084Z,64.59
2023-02-28T22:28:58.498Z,64.93
2023-02-28T22:31:27.909Z,64.91
2023-02-28T22:33:57.429Z,64.86
2023-02-28T22:36:29.177Z,64.98
2023-02-28T22:38:57.753Z,64.93
2023-02-28T22:41:25.060Z,65.04
2023-02-28T22:43:54.446Z,65.01
2023-02-28T22:46:22.665Z,65.17
2023-02-28T22:48:50.479Z,65.05
2023-02-28T22:51:23.423Z,65.34
2023-02-28T22:53:51.702Z,65.28
2023-02-28T22:56:20.938Z,65.49
2023-02-28T22:58:56.049Z,65.38
2023-02-28T23:01:24.577Z,65.51
2023-02-28T23:03:51.613Z,65.45
2023-02-28T23:06:24.383Z,65.67
2023-02-28T23:08:52.930Z,65.28
2023-02-28T23:11:22.552Z,65.44
2023-02-28T23:13:58.893Z,65.52
2023-02-28T23:16:31.499Z,65.36
2023-02-28T23:19:01.267Z,65.44
2023-02-28T23:21:28.794Z,65.68
2023-02-28T23:23:55.829Z,65.64
2023-02-28T23:26:23.236Z,65.62
2023-02-28T23:28:50.361Z,65.62
2023-02-28T23:31:17.186Z,65.76
2023-02-28T23:33:43.963Z,65.65
2023-02-28T23:36:13.003Z,65.74
2023-02-28T23:38:41.156Z,65.97
2023-02-28T23:41:11.463Z,66.03
2023-02-28T23:43:40.646Z,66.07
2023-02-28T23:46:08.303Z,66.11
2023-02-28T23:48:35.445Z,66.15
2023-02-28T23:51:11.260Z,66.28
2023-02-28T23:53:40.846Z,66.24
2023-02-28T23:56:09.969Z,66.10
2023-02-28T23:58:36.995Z,66.26
